Morrison, Argentina
Current Conditions -  °F | °C
As of 4:00 AM on Wednesday 22 Oct 2014 (Local Time) from SAOC Reporting Station
Clear Clear  
Wind Chill: 18°   Ceiling: Unl
Heat Index: 18°   Visibility: 6mi
Dew Point: 12°   Wind: 18mph
Humidity: 68%   Direction: 360°N
Pressure: 29.88"   Gusts: NA
Location:  32.6°S, 62.83°W
Report Text: SAOC 220700Z 36016KT CAVOK 18/12 Q1012
Loading
Personal Weather Stations






























Interactive Weather Map
Tropical Storm Tracking
New forecast layout! Learn more

10-Day Weather Forecast

Advertisements
Track Severe Weather on mobile